createdAt,value
2019-02-10T00:01:29.219Z,8.30
2019-02-10T00:03:56.159Z,8.30
2019-02-10T00:06:24.885Z,8.30
2019-02-10T00:08:50.043Z,8.20
2019-02-10T00:11:18.615Z,8.10
2019-02-10T00:13:45.548Z,8.10
2019-02-10T00:16:17.223Z,8.10
2019-02-10T00:18:44.202Z,8.00
2019-02-10T00:21:11.103Z,8.10
2019-02-10T00:23:38.066Z,8.10
2019-02-10T00:26:05.013Z,8.10
2019-02-10T00:28:31.950Z,8.20
2019-02-10T00:30:58.928Z,8.20
2019-02-10T00:33:25.863Z,8.10
2019-02-10T00:35:52.884Z,8.20
2019-02-10T00:38:19.840Z,8.20
2019-02-10T00:40:46.784Z,8.20
2019-02-10T00:43:13.721Z,8.20
2019-02-10T00:45:40.682Z,8.20
2019-02-10T00:48:07.628Z,8.20
2019-02-10T00:50:34.596Z,8.20
2019-02-10T00:53:01.565Z,8.30
2019-02-10T00:55:28.500Z,8.30
2019-02-10T00:57:55.444Z,8.30
2019-02-10T01:00:22.403Z,9.40
2019-02-10T01:02:49.343Z,8.30
2019-02-10T01:05:16.291Z,8.30
2019-02-10T01:07:43.245Z,8.40
2019-02-10T01:10:10.185Z,8.40
2019-02-10T01:12:37.431Z,8.40
2019-02-10T01:15:04.419Z,8.40
2019-02-10T01:17:31.377Z,8.40
2019-02-10T01:19:58.328Z,8.60
2019-02-10T01:22:25.291Z,8.30
2019-02-10T01:24:52.233Z,8.40
2019-02-10T01:27:19.179Z,8.30
2019-02-10T01:29:46.139Z,8.20
2019-02-10T01:32:13.092Z,8.20
2019-02-10T01:34:40.023Z,8.10
2019-02-10T01:37:07.272Z,8.10
2019-02-10T01:39:34.217Z,8.00
2019-02-10T01:42:01.153Z,8.00
2019-02-10T01:44:28.127Z,7.80
2019-02-10T01:46:55.084Z,7.80
2019-02-10T01:49:22.028Z,7.80
2019-02-10T01:51:48.992Z,7.70
2019-02-10T01:54:15.951Z,7.60
2019-02-10T01:56:42.891Z,7.50
2019-02-10T01:59:09.851Z,7.50
2019-02-10T02:01:36.792Z,7.60
2019-02-10T02:04:03.729Z,7.40
2019-02-10T02:06:30.685Z,7.50
2019-02-10T02:08:57.633Z,7.50
2019-02-10T02:11:24.568Z,7.60
2019-02-10T02:13:52.154Z,7.50
2019-02-10T02:16:19.101Z,7.40
2019-02-10T02:18:46.029Z,7.40
2019-02-10T02:21:12.984Z,7.50
2019-02-10T02:23:39.911Z,7.50
2019-02-10T02:26:06.868Z,7.60
2019-02-10T02:28:33.849Z,7.50
2019-02-10T02:31:00.795Z,7.60
2019-02-10T02:33:27.776Z,7.60
2019-02-10T02:35:54.746Z,7.60
2019-02-10T02:38:21.689Z,7.70
2019-02-10T02:40:48.629Z,7.70
2019-02-10T02:43:15.583Z,7.70
2019-02-10T02:45:42.533Z,7.70
2019-02-10T02:48:09.466Z,7.90
2019-02-10T02:50:36.489Z,7.80
2019-02-10T02:53:03.379Z,7.90
2019-02-10T02:55:30.312Z,7.90
2019-02-10T02:57:57.296Z,7.90
2019-02-10T03:00:24.205Z,8.00
2019-02-10T03:02:51.147Z,8.00
2019-02-10T03:05:18.099Z,8.00
2019-02-10T03:07:45.041Z,8.10
2019-02-10T03:10:11.992Z,8.10
2019-02-10T03:12:38.981Z,8.10
2019-02-10T03:15:06.397Z,8.20
2019-02-10T03:17:33.344Z,8.20
2019-02-10T03:20:00.422Z,8.20
2019-02-10T03:22:27.309Z,8.20
2019-02-10T03:24:54.258Z,8.30
2019-02-10T03:27:21.203Z,8.20
2019-02-10T03:29:48.127Z,8.20
2019-02-10T03:32:15.087Z,8.20
2019-02-10T03:34:42.070Z,8.30
2019-02-10T03:37:08.965Z,8.20
2019-02-10T03:39:35.903Z,8.20
2019-02-10T03:42:02.877Z,8.30
2019-02-10T03:44:29.880Z,8.30
2019-02-10T03:46:56.826Z,8.20
2019-02-10T03:49:23.792Z,8.20
2019-02-10T03:51:50.722Z,8.20
2019-02-10T03:54:17.664Z,8.10
2019-02-10T03:56:44.641Z,8.10
2019-02-10T03:59:11.590Z,8.00
2019-02-10T04:01:38.514Z,8.00
2019-02-10T04:04:05.494Z,7.90
2019-02-10T04:06:32.461Z,8.00
2019-02-10T04:08:59.398Z,8.00
2019-02-10T04:11:26.347Z,8.00
2019-02-10T04:13:53.289Z,8.10
2019-02-10T04:16:20.741Z,8.00
2019-02-10T04:18:47.746Z,8.00
2019-02-10T04:21:14.667Z,8.00
2019-02-10T04:23:41.599Z,8.10
2019-02-10T04:26:08.557Z,8.20
2019-02-10T04:28:35.522Z,8.20
2019-02-10T04:31:02.473Z,8.10
2019-02-10T04:33:29.454Z,8.10
2019-02-10T04:35:56.393Z,8.20
2019-02-10T04:38:23.347Z,8.20
2019-02-10T04:40:50.306Z,8.20
2019-02-10T04:43:17.247Z,8.10
2019-02-10T04:45:44.178Z,8.20
2019-02-10T04:48:11.124Z,8.10
2019-02-10T04:50:38.067Z,8.20
2019-02-10T04:53:05.049Z,8.20
2019-02-10T04:55:32.004Z,8.30
2019-02-10T04:57:58.938Z,8.20
2019-02-10T05:00:25.872Z,8.30
2019-02-10T05:02:52.823Z,8.40
2019-02-10T05:05:19.758Z,8.40
2019-02-10T05:07:54.251Z,8.40
2019-02-10T05:10:13.672Z,8.40
2019-02-10T05:12:40.681Z,8.40
2019-02-10T05:15:07.613Z,8.50
2019-02-10T05:17:35.025Z,8.40
2019-02-10T05:20:01.955Z,8.40
2019-02-10T05:22:28.896Z,8.40
2019-02-10T05:24:55.852Z,8.40
2019-02-10T05:27:22.794Z,8.40
2019-02-10T05:29:49.738Z,8.50
2019-02-10T05:32:16.706Z,8.40
2019-02-10T05:34:43.821Z,8.50
2019-02-10T05:37:10.830Z,8.40
2019-02-10T05:39:37.814Z,8.40
2019-02-10T05:42:04.736Z,8.10
2019-02-10T05:44:31.675Z,8.50
2019-02-10T05:46:58.637Z,8.50
2019-02-10T05:49:25.567Z,8.50
2019-02-10T05:51:52.520Z,8.60
2019-02-10T05:54:19.476Z,8.50
2019-02-10T05:56:46.416Z,8.50
2019-02-10T05:59:13.345Z,8.50
2019-02-10T06:01:52.145Z,8.50
2019-02-10T06:04:19.084Z,8.30
2019-02-10T06:06:46.033Z,8.40
2019-02-10T06:09:12.999Z,8.40
2019-02-10T06:11:39.935Z,8.40
2019-02-10T06:14:06.876Z,8.40
2019-02-10T06:16:33.848Z,9.20
2019-02-10T06:19:07.182Z,8.40
2019-02-10T06:21:34.155Z,8.40
2019-02-10T06:24:01.120Z,8.40
2019-02-10T06:26:28.067Z,8.40
2019-02-10T06:28:55.017Z,8.40
2019-02-10T06:31:21.985Z,8.40
2019-02-10T06:33:48.932Z,8.30
2019-02-10T06:36:16.755Z,8.40
2019-02-10T06:38:42.893Z,8.50
2019-02-10T06:41:09.856Z,8.50
2019-02-10T06:43:36.823Z,8.50
2019-02-10T06:46:03.808Z,8.60
2019-02-10T06:48:30.761Z,8.40
2019-02-10T06:50:57.780Z,8.50
2019-02-10T06:53:24.754Z,8.50
2019-02-10T06:55:51.681Z,8.60
2019-02-10T06:58:18.621Z,8.60
2019-02-10T07:00:51.768Z,8.60
2019-02-10T07:03:33.923Z,8.60
2019-02-10T07:06:00.935Z,8.60
2019-02-10T07:08:30.699Z,8.60
2019-02-10T07:10:54.837Z,8.70
2019-02-10T07:13:29.241Z,8.70
2019-02-10T07:16:07.977Z,8.80
2019-02-10T07:19:06.391Z,8.90
2019-02-10T07:21:39.100Z,8.90
2019-02-10T07:24:17.804Z,9.00
2019-02-10T07:27:02.907Z,9.10
2019-02-10T07:30:05.492Z,9.10
2019-02-10T07:32:37.319Z,9.10
2019-02-10T07:35:13.642Z,9.10
2019-02-10T07:38:10.579Z,9.10
2019-02-10T07:41:00.379Z,9.10
2019-02-10T07:43:51.128Z,9.20
2019-02-10T07:46:53.008Z,9.20
2019-02-10T07:49:37.584Z,9.20
2019-02-10T07:52:17.744Z,9.30
2019-02-10T07:55:05.879Z,9.30
2019-02-10T07:57:52.055Z,9.30
2019-02-10T08:00:30.595Z,9.40
2019-02-10T08:03:14.118Z,9.40
2019-02-10T08:05:51.736Z,9.40
2019-02-10T08:08:46.674Z,9.40
2019-02-10T08:11:28.640Z,9.50
2019-02-10T08:14:23.428Z,9.60
2019-02-10T08:17:10.983Z,9.60
2019-02-10T08:19:58.563Z,9.70
2019-02-10T08:22:44.835Z,9.70
2019-02-10T08:25:39.615Z,9.70
2019-02-10T08:28:22.869Z,9.80
2019-02-10T08:31:14.081Z,9.90
2019-02-10T08:33:57.955Z,10.00
2019-02-10T08:36:50.215Z,10.10
2019-02-10T08:39:31.312Z,10.20
2019-02-10T08:42:20.870Z,10.40
2019-02-10T08:45:29.332Z,10.30
2019-02-10T08:48:12.769Z,10.70
2019-02-10T08:50:50.821Z,10.70
2019-02-10T08:53:23.314Z,10.70
2019-02-10T08:55:50.299Z,10.70
2019-02-10T08:58:17.240Z,10.60
2019-02-10T09:00:44.200Z,10.60
2019-02-10T09:03:11.184Z,10.80
2019-02-10T09:05:38.172Z,10.60
2019-02-10T09:08:05.143Z,10.60
2019-02-10T09:10:32.119Z,10.60
2019-02-10T09:12:59.068Z,10.60
2019-02-10T09:15:26.030Z,10.60
2019-02-10T09:17:53.000Z,10.70
2019-02-10T09:20:19.947Z,10.60
2019-02-10T09:22:48.360Z,10.70
2019-02-10T09:25:15.309Z,10.70
2019-02-10T09:27:42.261Z,10.80
2019-02-10T09:30:10.192Z,10.90
2019-02-10T09:32:37.128Z,11.00
2019-02-10T09:35:04.494Z,11.10
2019-02-10T09:37:31.449Z,11.20
2019-02-10T09:39:58.405Z,11.30
2019-02-10T09:42:25.346Z,11.30
2019-02-10T09:44:52.321Z,11.50
2019-02-10T09:47:19.251Z,11.70
2019-02-10T09:49:46.237Z,12.10
2019-02-10T09:52:13.317Z,12.40
2019-02-10T09:54:40.270Z,13.00
2019-02-10T09:57:07.228Z,14.30
2019-02-10T09:59:34.216Z,16.00
2019-02-10T10:02:01.221Z,18.00
2019-02-10T10:04:28.252Z,18.90
2019-02-10T10:06:55.217Z,18.80
2019-02-10T10:09:22.159Z,17.90
2019-02-10T10:11:49.156Z,17.20
2019-02-10T10:14:16.137Z,17.70
2019-02-10T10:16:43.065Z,18.60
2019-02-10T10:19:10.056Z,19.00
2019-02-10T10:21:37.014Z,19.20
2019-02-10T10:24:04.113Z,19.30
2019-02-10T10:26:31.067Z,19.60
2019-02-10T10:28:58.020Z,20.30
2019-02-10T10:31:24.967Z,20.30
2019-02-10T10:33:51.945Z,19.70
2019-02-10T10:36:18.907Z,18.60
2019-02-10T10:38:45.844Z,17.50
2019-02-10T10:41:12.799Z,16.60
2019-02-10T10:43:39.779Z,16.10
2019-02-10T10:46:06.760Z,15.50
2019-02-10T10:48:33.713Z,15.20
2019-02-10T10:51:00.709Z,15.00
2019-02-10T10:53:27.696Z,14.90
2019-02-10T10:55:54.648Z,15.00
2019-02-10T10:58:21.619Z,15.50
2019-02-10T11:00:48.552Z,16.70
2019-02-10T11:03:17.224Z,17.50
2019-02-10T11:05:42.475Z,17.80
2019-02-10T11:08:10.141Z,17.70
2019-02-10T11:10:37.096Z,17.40
2019-02-10T11:13:04.036Z,17.00
2019-02-10T11:15:30.985Z,15.80
2019-02-10T11:17:57.921Z,16.20
2019-02-10T11:20:24.897Z,15.70
2019-02-10T11:22:51.845Z,15.40
2019-02-10T11:25:19.219Z,15.10
2019-02-10T11:27:46.212Z,15.00
2019-02-10T11:30:13.176Z,15.00
2019-02-10T11:32:40.124Z,15.10
2019-02-10T11:35:07.213Z,15.50
2019-02-10T11:37:34.136Z,16.40
2019-02-10T11:40:01.100Z,16.70
2019-02-10T11:42:28.077Z,16.40
2019-02-10T11:44:55.028Z,16.10
2019-02-10T11:47:21.964Z,15.90
2019-02-10T11:49:48.934Z,15.90
2019-02-10T11:52:15.860Z,15.90
2019-02-10T11:54:42.799Z,15.80
2019-02-10T11:57:09.787Z,15.60
2019-02-10T11:59:36.724Z,15.40
2019-02-10T12:02:03.674Z,15.30
2019-02-10T12:04:30.650Z,15.20
2019-02-10T12:06:57.614Z,15.40
2019-02-10T12:09:24.548Z,15.40
2019-02-10T12:11:51.512Z,15.50
2019-02-10T12:14:18.475Z,15.60
2019-02-10T12:16:45.407Z,15.50
2019-02-10T12:19:12.364Z,15.40
2019-02-10T12:21:39.305Z,15.20
2019-02-10T12:24:06.231Z,15.10
2019-02-10T12:26:34.859Z,15.10
2019-02-10T12:29:01.788Z,15.00
2019-02-10T12:31:28.728Z,15.00
2019-02-10T12:33:55.684Z,14.90
2019-02-10T12:36:22.615Z,14.80
2019-02-10T12:38:49.543Z,14.70
2019-02-10T12:41:16.519Z,14.70
2019-02-10T12:43:43.459Z,14.70
2019-02-10T12:46:10.401Z,14.70
2019-02-10T12:48:37.369Z,14.70
2019-02-10T12:51:04.311Z,14.70
2019-02-10T12:53:31.242Z,14.60
2019-02-10T12:55:58.196Z,14.60
2019-02-10T12:58:25.148Z,14.50
2019-02-10T13:00:52.140Z,14.30
2019-02-10T13:03:19.055Z,14.10
2019-02-10T13:05:45.991Z,14.00
2019-02-10T13:08:12.919Z,13.90
2019-02-10T13:10:39.893Z,13.80
2019-02-10T13:13:06.836Z,13.90
2019-02-10T13:15:33.783Z,13.80
2019-02-10T13:18:00.759Z,13.50
2019-02-10T13:20:27.701Z,13.40
2019-02-10T13:22:54.696Z,13.20
2019-02-10T13:25:21.721Z,12.90
2019-02-10T13:27:50.229Z,12.60
2019-02-10T13:30:17.196Z,12.50
2019-02-10T13:32:44.152Z,12.20
2019-02-10T13:35:11.109Z,12.00
2019-02-10T13:37:38.040Z,11.80
2019-02-10T13:40:16.227Z,11.70
2019-02-10T13:42:35.500Z,11.50
2019-02-10T13:45:02.439Z,11.40
2019-02-10T13:47:29.388Z,11.20
2019-02-10T13:49:56.328Z,11.30
2019-02-10T13:52:23.263Z,11.20
2019-02-10T13:54:50.221Z,11.10
2019-02-10T13:57:17.156Z,11.10
2019-02-10T13:59:44.102Z,11.10
2019-02-10T14:02:11.841Z,11.10
2019-02-10T14:04:38.005Z,11.10
2019-02-10T14:07:04.931Z,11.10
2019-02-10T14:09:31.883Z,11.10
2019-02-10T14:11:58.833Z,11.00
2019-02-10T14:14:25.766Z,11.00
2019-02-10T14:16:52.736Z,11.00
2019-02-10T14:19:19.683Z,10.90
2019-02-10T14:21:46.631Z,11.00
2019-02-10T14:24:13.588Z,11.00
2019-02-10T14:26:40.535Z,10.90
2019-02-10T14:29:07.995Z,10.90
2019-02-10T14:31:34.959Z,10.80
2019-02-10T14:34:03.415Z,10.80
2019-02-10T14:36:28.837Z,10.70
2019-02-10T14:38:55.799Z,10.60
2019-02-10T14:41:22.731Z,10.60
2019-02-10T14:43:49.661Z,10.50
2019-02-10T14:46:16.620Z,10.50
2019-02-10T14:48:43.568Z,10.50
2019-02-10T14:51:10.527Z,10.40
2019-02-10T14:53:37.467Z,10.40
2019-02-10T14:56:04.408Z,10.30
2019-02-10T14:58:31.520Z,10.30
2019-02-10T15:00:58.476Z,10.30
2019-02-10T15:03:25.401Z,10.20
2019-02-10T15:05:52.350Z,10.30
2019-02-10T15:08:19.310Z,10.20
2019-02-10T15:10:46.249Z,10.30
2019-02-10T15:13:14.024Z,10.20
2019-02-10T15:15:40.979Z,10.10
2019-02-10T15:18:07.912Z,10.10
2019-02-10T15:20:35.225Z,10.10
2019-02-10T15:23:01.860Z,10.10
2019-02-10T15:25:28.814Z,10.10
2019-02-10T15:27:55.777Z,10.10
2019-02-10T15:30:23.160Z,10.10
2019-02-10T15:32:50.141Z,10.00
2019-02-10T15:35:17.109Z,10.00
2019-02-10T15:37:44.085Z,10.00
2019-02-10T15:40:11.052Z,9.90
2019-02-10T15:42:37.985Z,10.00
2019-02-10T15:45:05.567Z,10.00
2019-02-10T15:47:32.532Z,9.90
2019-02-10T15:49:59.513Z,9.90
2019-02-10T15:52:26.482Z,9.70
2019-02-10T15:54:53.405Z,9.70
2019-02-10T15:57:20.352Z,9.60
2019-02-10T15:59:47.321Z,9.60
2019-02-10T16:02:14.284Z,9.50
2019-02-10T16:04:41.229Z,9.50
2019-02-10T16:07:08.192Z,9.60
2019-02-10T16:09:35.133Z,9.50
2019-02-10T16:12:02.089Z,9.60
2019-02-10T16:14:29.052Z,9.50
2019-02-10T16:16:55.989Z,9.50
2019-02-10T16:19:22.952Z,9.40
2019-02-10T16:21:49.951Z,9.10
2019-02-10T16:24:16.901Z,8.90
2019-02-10T16:26:43.853Z,8.50
2019-02-10T16:29:10.871Z,8.50
2019-02-10T16:31:38.487Z,8.20
2019-02-10T16:34:05.499Z,8.30
2019-02-10T16:36:32.480Z,8.40
2019-02-10T16:38:59.469Z,8.20
2019-02-10T16:41:26.456Z,8.20
2019-02-10T16:43:53.464Z,8.20
2019-02-10T16:46:20.498Z,8.20
2019-02-10T16:48:47.440Z,8.10
2019-02-10T16:51:14.428Z,8.20
2019-02-10T16:53:41.380Z,8.50
2019-02-10T16:56:08.340Z,7.90
2019-02-10T16:58:35.333Z,7.90
2019-02-10T17:01:02.280Z,7.60
2019-02-10T17:03:29.226Z,8.00
2019-02-10T17:05:56.183Z,7.10
2019-02-10T17:08:23.208Z,7.00
2019-02-10T17:10:50.165Z,6.90
2019-02-10T17:13:17.137Z,6.80
2019-02-10T17:15:44.098Z,6.80
2019-02-10T17:18:12.065Z,6.70
2019-02-10T17:20:38.024Z,6.70
2019-02-10T17:23:04.973Z,6.70
2019-02-10T17:25:31.920Z,6.60
2019-02-10T17:27:58.893Z,6.80
2019-02-10T17:30:25.835Z,6.60
2019-02-10T17:32:54.318Z,6.70
2019-02-10T17:35:21.244Z,6.70
2019-02-10T17:37:48.249Z,6.70
2019-02-10T17:40:19.235Z,6.50
2019-02-10T17:42:46.254Z,6.50
2019-02-10T17:45:13.204Z,6.40
2019-02-10T17:47:40.164Z,6.30
2019-02-10T17:50:08.181Z,6.30
2019-02-10T17:52:35.125Z,6.20
2019-02-10T17:55:02.057Z,6.20
2019-02-10T17:57:29.022Z,7.00
2019-02-10T17:59:55.964Z,6.30
2019-02-10T18:02:22.899Z,6.30
2019-02-10T18:04:49.926Z,6.30
2019-02-10T18:07:16.935Z,6.40
2019-02-10T18:09:43.870Z,6.40
2019-02-10T18:12:10.828Z,6.40
2019-02-10T18:14:49.160Z,6.50
2019-02-10T18:17:25.250Z,6.60
2019-02-10T18:20:03.512Z,6.50
2019-02-10T18:22:37.926Z,6.50
2019-02-10T18:25:15.534Z,6.40
2019-02-10T18:27:58.958Z,6.50
2019-02-10T18:30:50.697Z,6.50
2019-02-10T18:33:26.522Z,6.60
2019-02-10T18:36:22.153Z,6.50
2019-02-10T18:39:02.123Z,6.50
2019-02-10T18:41:39.305Z,6.60
2019-02-10T18:44:14.029Z,6.50
2019-02-10T18:46:49.665Z,6.50
2019-02-10T18:49:24.782Z,6.50
2019-02-10T18:52:03.769Z,6.50
2019-02-10T18:54:46.091Z,6.50
2019-02-10T18:57:18.739Z,6.50
2019-02-10T19:00:06.376Z,6.50
2019-02-10T19:02:43.371Z,6.50
2019-02-10T19:05:18.302Z,6.50
2019-02-10T19:08:06.755Z,6.60
2019-02-10T19:10:41.488Z,6.50
2019-02-10T19:13:17.384Z,6.50
2019-02-10T19:15:57.207Z,6.50
2019-02-10T19:18:33.036Z,6.50
2019-02-10T19:21:06.393Z,6.40
2019-02-10T19:23:43.751Z,6.90
2019-02-10T19:26:19.315Z,6.40
2019-02-10T19:29:00.616Z,6.50
2019-02-10T19:31:37.007Z,6.30
2019-02-10T19:34:24.860Z,6.40
2019-02-10T19:37:01.172Z,6.30
2019-02-10T19:39:35.591Z,6.40
2019-02-10T19:42:08.379Z,6.30
2019-02-10T19:44:52.437Z,6.30
2019-02-10T19:47:40.078Z,6.20
2019-02-10T19:50:20.204Z,6.30
2019-02-10T19:52:56.240Z,6.30
2019-02-10T19:55:37.495Z,6.30
2019-02-10T19:58:28.935Z,6.40
2019-02-10T20:01:01.625Z,6.30
2019-02-10T20:03:34.192Z,6.30
2019-02-10T20:06:08.701Z,6.30
2019-02-10T20:08:43.112Z,6.30
2019-02-10T20:11:31.556Z,6.30
2019-02-10T20:14:05.129Z,6.30
2019-02-10T20:16:42.769Z,6.50
2019-02-10T20:19:31.244Z,6.40
2019-02-10T20:22:13.437Z,6.40
2019-02-10T20:24:53.799Z,6.40
2019-02-10T20:27:44.381Z,6.40
2019-02-10T20:30:31.072Z,6.40
2019-02-10T20:33:19.499Z,6.40
2019-02-10T20:35:53.406Z,6.40
2019-02-10T20:38:34.817Z,6.40
2019-02-10T20:41:12.336Z,6.40
2019-02-10T20:43:46.394Z,5.30
2019-02-10T20:46:32.991Z,6.40
2019-02-10T20:49:12.478Z,6.30
2019-02-10T20:51:49.016Z,6.30
2019-02-10T20:54:35.659Z,6.30
2019-02-10T20:57:12.027Z,6.60
2019-02-10T20:59:54.115Z,6.20
2019-02-10T21:02:30.859Z,6.10
2019-02-10T21:05:05.423Z,6.00
2019-02-10T21:07:43.896Z,6.00
2019-02-10T21:10:16.487Z,5.90
2019-02-10T21:12:51.060Z,5.80
2019-02-10T21:15:31.808Z,5.70
2019-02-10T21:18:05.991Z,5.60
2019-02-10T21:20:57.596Z,5.90
2019-02-10T21:23:33.359Z,5.40
2019-02-10T21:26:10.185Z,5.40
2019-02-10T21:28:44.697Z,5.40
2019-02-10T21:31:19.826Z,5.40
2019-02-10T21:33:54.438Z,5.30
2019-02-10T21:36:29.044Z,5.30
2019-02-10T21:39:08.474Z,5.20
2019-02-10T21:41:55.026Z,5.20
2019-02-10T21:44:41.623Z,5.20
2019-02-10T21:47:14.324Z,5.10
2019-02-10T21:49:41.272Z,5.10
2019-02-10T21:52:08.352Z,5.20
2019-02-10T21:54:35.313Z,5.30
2019-02-10T21:57:02.279Z,5.30
2019-02-10T21:59:29.240Z,5.40
2019-02-10T22:01:56.221Z,5.30
2019-02-10T22:04:23.245Z,5.70
2019-02-10T22:06:50.234Z,5.30
2019-02-10T22:09:17.181Z,5.30
2019-02-10T22:11:44.181Z,5.30
2019-02-10T22:14:11.127Z,5.30
2019-02-10T22:16:38.169Z,5.40
2019-02-10T22:19:05.144Z,5.50
2019-02-10T22:21:32.129Z,5.40
2019-02-10T22:23:59.068Z,4.90
2019-02-10T22:26:26.005Z,5.50
2019-02-10T22:28:52.966Z,5.50
2019-02-10T22:31:19.913Z,5.50
2019-02-10T22:33:51.480Z,5.60
2019-02-10T22:36:13.825Z,5.60
2019-02-10T22:38:41.139Z,5.70
2019-02-10T22:41:08.088Z,5.70
2019-02-10T22:43:35.051Z,6.00
2019-02-10T22:46:01.997Z,5.80
2019-02-10T22:48:28.956Z,5.90
2019-02-10T22:50:55.907Z,5.80
2019-02-10T22:53:22.856Z,5.90
2019-02-10T22:55:49.797Z,5.90
2019-02-10T22:58:16.746Z,5.90
2019-02-10T23:00:53.086Z,5.90
2019-02-10T23:03:20.120Z,6.10
2019-02-10T23:05:47.096Z,5.90
2019-02-10T23:08:14.085Z,6.00
2019-02-10T23:10:41.108Z,5.90
2019-02-10T23:13:08.055Z,6.50
2019-02-10T23:15:35.002Z,6.10
2019-02-10T23:18:01.976Z,6.10
2019-02-10T23:20:28.937Z,6.60
2019-02-10T23:22:55.907Z,6.00
2019-02-10T23:25:22.860Z,6.00
2019-02-10T23:27:49.804Z,6.10
2019-02-10T23:30:16.740Z,6.30
2019-02-10T23:32:43.721Z,6.10
2019-02-10T23:35:10.669Z,6.20
2019-02-10T23:37:37.605Z,6.20
2019-02-10T23:40:04.778Z,6.10
2019-02-10T23:42:31.732Z,6.10
2019-02-10T23:44:58.679Z,6.10
2019-02-10T23:47:25.646Z,6.10
2019-02-10T23:49:52.594Z,6.10
2019-02-10T23:52:19.538Z,6.00
2019-02-10T23:54:46.485Z,6.60
2019-02-10T23:57:13.431Z,5.90
2019-02-10T23:59:40.369Z,5.90
